createdAt,value
2023-04-11T00:02:11.245Z,100554.41
2023-04-11T00:04:41.389Z,100556.81
2023-04-11T00:07:09.829Z,100568.81
2023-04-11T00:09:38.375Z,100570.00
2023-04-11T00:12:07.786Z,100556.19
2023-04-11T00:14:36.025Z,100559.72
2023-04-11T00:17:06.058Z,100552.75
2023-04-11T00:19:34.449Z,100560.16
2023-04-11T00:22:05.013Z,100554.91
2023-04-11T00:24:33.258Z,100558.06
2023-04-11T00:27:01.480Z,100554.91
2023-04-11T00:29:29.927Z,100557.13
2023-04-11T00:31:58.128Z,100559.06
2023-04-11T00:34:26.554Z,100556.00
2023-04-11T00:36:54.821Z,100564.34
2023-04-11T00:39:26.474Z,100559.22
2023-04-11T00:41:54.780Z,100552.75
2023-04-11T00:44:25.525Z,100554.47
2023-04-11T00:46:53.911Z,100552.28
2023-04-11T00:49:22.457Z,100558.03
2023-04-11T00:51:50.969Z,100561.81
2023-04-11T00:54:20.173Z,100552.47
2023-04-11T00:56:51.140Z,100557.41
2023-04-11T00:59:19.349Z,100565.97
2023-04-11T01:01:50.072Z,100562.69
2023-04-11T01:04:19.015Z,100563.19
2023-04-11T01:06:52.843Z,100559.56
2023-04-11T01:09:22.773Z,100563.19
2023-04-11T01:11:53.305Z,100555.50
2023-04-11T01:14:23.667Z,100557.50
2023-04-11T01:16:52.454Z,100562.19
2023-04-11T01:19:23.327Z,100555.19
2023-04-11T01:21:53.352Z,100548.53
2023-04-11T01:24:23.077Z,100548.31
2023-04-11T01:26:52.075Z,100556.66
2023-04-11T01:29:20.953Z,100563.00
2023-04-11T01:31:51.639Z,100558.38
2023-04-11T01:34:22.483Z,100560.59
2023-04-11T01:36:51.007Z,100566.88
2023-04-11T01:39:19.532Z,100562.09
2023-04-11T01:41:50.695Z,100559.03
2023-04-11T01:44:20.317Z,100552.03
2023-04-11T01:46:49.122Z,100552.50
2023-04-11T01:49:19.061Z,100546.59
2023-04-11T01:51:47.384Z,100553.22
2023-04-11T01:54:15.947Z,100558.41
2023-04-11T01:56:44.541Z,100565.19
2023-04-11T01:59:14.174Z,100568.16
2023-04-11T02:01:44.940Z,100567.38
2023-04-11T02:04:13.442Z,100569.72
2023-04-11T02:06:41.720Z,100572.66
2023-04-11T02:09:10.264Z,100574.75
2023-04-11T02:11:38.858Z,100582.94
2023-04-11T02:14:09.822Z,100585.34
2023-04-11T02:16:53.075Z,100583.91
2023-04-11T02:19:23.388Z,100582.41
2023-04-11T02:21:51.638Z,100587.81
2023-04-11T02:24:20.143Z,100574.09
2023-04-11T02:26:48.352Z,100576.50
2023-04-11T02:29:16.646Z,100565.47
2023-04-11T02:31:44.934Z,100581.34
2023-04-11T02:34:14.619Z,100573.94
2023-04-11T02:36:43.836Z,100583.41
2023-04-11T02:39:12.506Z,100580.22
2023-04-11T02:41:41.334Z,100581.88
2023-04-11T02:44:13.683Z,100591.81
2023-04-11T02:46:42.219Z,100591.72
2023-04-11T02:49:10.768Z,100600.88
2023-04-11T02:51:41.058Z,100604.78
2023-04-11T02:54:09.399Z,100590.81
2023-04-11T02:56:38.999Z,100607.31
2023-04-11T02:59:08.152Z,100599.94
2023-04-11T03:01:37.704Z,100605.22
2023-04-11T03:04:07.305Z,100605.06
2023-04-11T03:06:36.113Z,100597.94
2023-04-11T03:09:05.939Z,100606.94
2023-04-11T03:11:34.158Z,100599.91
2023-04-11T03:14:02.737Z,100601.59
2023-04-11T03:16:31.153Z,100592.69
2023-04-11T03:18:59.623Z,100603.53
2023-04-11T03:21:28.115Z,100599.72
2023-04-11T03:23:56.418Z,100598.28
2023-04-11T03:26:27.252Z,100598.09
2023-04-11T03:28:55.695Z,100599.41
2023-04-11T03:31:24.101Z,100596.91
2023-04-11T03:33:52.346Z,100599.91
2023-04-11T03:36:22.474Z,100601.94
2023-04-11T03:38:50.685Z,100624.94
2023-04-11T03:41:19.464Z,100612.13
2023-04-11T03:43:49.061Z,100621.16
2023-04-11T03:46:17.357Z,100620.31
2023-04-11T03:48:47.132Z,100622.56
2023-04-11T03:51:15.506Z,100627.28
2023-04-11T03:53:43.776Z,100635.38
2023-04-11T03:56:12.306Z,100630.63
2023-04-11T03:58:40.510Z,100635.16
2023-04-11T04:01:10.236Z,100644.72
2023-04-11T04:03:38.770Z,100639.75
2023-04-11T04:06:08.045Z,100656.41
2023-04-11T04:08:36.237Z,100645.94
2023-04-11T04:11:04.756Z,100643.97
2023-04-11T04:13:32.942Z,100649.13
2023-04-11T04:16:03.432Z,100652.47
2023-04-11T04:18:33.555Z,100646.25
2023-04-11T04:21:01.841Z,100658.84
2023-04-11T04:23:30.087Z,100650.28
2023-04-11T04:26:02.188Z,100651.88
2023-04-11T04:28:31.061Z,100655.66
2023-04-11T04:30:59.305Z,100664.31
2023-04-11T04:33:27.757Z,100663.84
2023-04-11T04:35:59.904Z,100670.75
2023-04-11T04:38:29.030Z,100665.69
2023-04-11T04:40:57.553Z,100667.41
2023-04-11T04:43:27.245Z,100680.63
2023-04-11T04:45:55.625Z,100663.69
2023-04-11T04:48:25.617Z,100678.03
2023-04-11T04:50:53.917Z,100685.00
2023-04-11T04:53:23.501Z,100675.72
2023-04-11T04:55:51.699Z,100673.50
2023-04-11T04:58:19.875Z,100673.25
2023-04-11T05:03:20.906Z,100693.97
2023-04-11T05:05:49.534Z,100693.00
2023-04-11T05:08:21.110Z,100695.72
2023-04-11T05:10:50.688Z,100701.00
2023-04-11T05:13:18.895Z,100703.47
2023-04-11T05:15:51.147Z,100699.81
2023-04-11T05:18:19.454Z,100696.69
2023-04-11T05:20:47.668Z,100707.38
2023-04-11T05:23:16.232Z,100708.25
2023-04-11T05:25:44.442Z,100716.53
2023-04-11T05:28:14.011Z,100731.13
2023-04-11T05:30:42.227Z,100723.41
2023-04-11T05:33:12.867Z,100725.81
2023-04-11T05:35:41.199Z,100730.19
2023-04-11T05:38:09.684Z,100726.47
2023-04-11T05:40:37.905Z,100745.25
2023-04-11T05:43:06.263Z,100742.75
2023-04-11T05:45:35.876Z,100738.41
2023-04-11T05:48:04.775Z,100753.53
2023-04-11T05:50:33.148Z,100755.44
2023-04-11T05:53:01.421Z,100744.78
2023-04-11T05:55:30.042Z,100763.00
2023-04-11T05:57:58.407Z,100764.63
2023-04-11T06:00:30.861Z,100776.78
2023-04-11T06:03:01.816Z,100769.94
2023-04-11T06:05:31.639Z,100775.16
2023-04-11T06:08:00.859Z,100776.66
2023-04-11T06:10:30.460Z,100785.06
2023-04-11T06:12:59.100Z,100792.94
2023-04-11T06:15:28.584Z,100785.59
2023-04-11T06:17:56.878Z,100803.03
2023-04-11T06:20:27.146Z,100789.84
2023-04-11T06:22:55.356Z,100798.63
2023-04-11T06:25:24.503Z,100815.13
2023-04-11T06:27:52.742Z,100817.59
2023-04-11T06:30:20.980Z,100810.09
2023-04-11T06:32:49.273Z,100812.94
2023-04-11T06:35:20.328Z,100812.69
2023-04-11T06:37:49.944Z,100818.84
2023-04-11T06:40:19.991Z,100821.22
2023-04-11T06:42:48.534Z,100833.69
2023-04-11T06:45:16.752Z,100829.97
2023-04-11T06:47:45.025Z,100834.09
2023-04-11T06:50:13.765Z,100840.44
2023-04-11T06:52:41.982Z,100836.53
2023-04-11T06:55:14.479Z,100836.00
2023-04-11T06:57:43.751Z,100837.38
2023-04-11T07:00:13.674Z,100834.56
2023-04-11T07:02:42.130Z,100850.06
2023-04-11T07:05:10.997Z,100840.13
2023-04-11T07:07:39.757Z,100841.44
2023-04-11T07:10:09.584Z,100850.22
2023-04-11T07:12:39.436Z,100855.00
2023-04-11T07:15:09.260Z,100853.69
2023-04-11T07:17:37.922Z,100856.22
2023-04-11T07:20:09.087Z,100861.41
2023-04-11T07:22:37.626Z,100865.91
2023-04-11T07:25:06.626Z,100869.16
2023-04-11T07:27:36.260Z,100879.91
2023-04-11T07:30:07.346Z,100881.78
2023-04-11T07:32:35.589Z,100863.84
2023-04-11T07:35:04.117Z,100868.00
2023-04-11T07:37:32.828Z,100873.88
2023-04-11T07:40:01.043Z,100868.66
2023-04-11T07:42:29.234Z,100870.50
2023-04-11T07:44:57.416Z,100876.31
2023-04-11T07:47:27.018Z,100877.38
2023-04-11T07:49:55.249Z,100878.91
2023-04-11T07:52:23.440Z,100868.53
2023-04-11T07:54:51.780Z,100864.66
2023-04-11T07:57:19.983Z,100871.09
2023-04-11T07:59:48.260Z,100882.31
2023-04-11T08:02:16.899Z,100879.19
2023-04-11T08:04:47.313Z,100878.19
2023-04-11T08:07:16.055Z,100883.34
2023-04-11T08:09:44.274Z,100885.47
2023-04-11T08:12:12.776Z,100883.13
2023-04-11T08:14:41.267Z,100884.91
2023-04-11T08:17:21.025Z,100883.53
2023-04-11T08:19:55.339Z,100892.53
2023-04-11T08:22:23.528Z,100901.25
2023-04-11T08:24:52.031Z,100895.97
2023-04-11T08:27:20.539Z,100900.63
2023-04-11T08:29:49.084Z,100907.41
2023-04-11T08:32:17.582Z,100907.44
2023-04-11T08:34:46.071Z,100904.16
2023-04-11T08:37:15.952Z,100896.41
2023-04-11T08:39:44.469Z,100902.16
2023-04-11T08:42:24.132Z,100912.38
2023-04-11T08:44:55.368Z,100904.66
2023-04-11T08:47:23.960Z,100922.50
2023-04-11T08:49:53.107Z,100923.31
2023-04-11T08:52:23.352Z,100926.47
2023-04-11T08:54:56.011Z,100931.69
2023-04-11T08:57:27.562Z,100944.72
2023-04-11T08:59:57.620Z,100941.22
2023-04-11T09:02:26.294Z,100928.59
2023-04-11T09:04:57.667Z,100933.72
2023-04-11T09:07:29.054Z,100926.41
2023-04-11T09:09:57.576Z,100935.19
2023-04-11T09:12:31.209Z,100932.00
2023-04-11T09:15:19.699Z,100931.88
2023-04-11T09:17:48.501Z,100942.41
2023-04-11T09:20:22.467Z,100935.22
2023-04-11T09:22:52.988Z,100927.28
2023-04-11T09:25:23.043Z,100934.44
2023-04-11T09:28:07.659Z,100937.16
2023-04-11T09:30:37.126Z,100931.16
2023-04-11T09:33:22.505Z,100934.22
2023-04-11T09:35:53.587Z,100939.38
2023-04-11T09:38:35.389Z,100939.03
2023-04-11T09:41:05.651Z,100943.22
2023-04-11T09:43:52.337Z,100944.72
2023-04-11T09:46:21.711Z,100949.06
2023-04-11T09:48:51.708Z,100955.94
2023-04-11T09:51:35.133Z,100949.28
2023-04-11T09:54:07.053Z,100951.19
2023-04-11T09:56:35.681Z,100950.09
2023-04-11T09:59:05.456Z,100945.25
2023-04-11T10:01:34.007Z,100947.63
2023-04-11T10:04:02.222Z,100949.47
2023-04-11T10:06:35.503Z,100946.97
2023-04-11T10:09:11.366Z,100953.31
2023-04-11T10:11:43.548Z,100948.63
2023-04-11T10:14:38.839Z,100952.53
2023-04-11T10:17:19.738Z,100954.28
2023-04-11T10:19:51.577Z,100952.28
2023-04-11T10:22:59.903Z,100946.63
2023-04-11T10:25:29.995Z,100957.50
2023-04-11T10:28:02.256Z,100960.69
2023-04-11T10:31:04.675Z,100968.84
2023-04-11T10:33:34.571Z,100971.09
2023-04-11T10:36:05.583Z,100969.84
2023-04-11T10:38:51.269Z,100961.50
2023-04-11T10:41:31.914Z,100968.41
2023-04-11T10:44:27.201Z,100959.66
2023-04-11T10:46:56.467Z,100971.31
2023-04-11T10:49:38.597Z,100943.34
2023-04-11T10:52:24.039Z,100946.38
2023-04-11T10:54:54.791Z,100957.09
2023-04-11T10:57:24.353Z,100962.94
2023-04-11T10:59:59.755Z,100961.28
2023-04-11T11:02:40.877Z,100945.19
2023-04-11T11:05:25.237Z,100944.56
2023-04-11T11:07:55.065Z,100953.97
2023-04-11T11:10:40.772Z,100955.31
2023-04-11T11:13:11.137Z,100952.72
2023-04-11T11:15:39.866Z,100943.72
2023-04-11T11:18:10.632Z,100944.81
2023-04-11T11:20:38.993Z,100949.56
2023-04-11T11:23:08.910Z,100951.66
2023-04-11T11:25:37.590Z,100939.50
2023-04-11T11:28:08.142Z,100948.16
2023-04-11T11:30:38.880Z,100942.94
2023-04-11T11:33:18.311Z,100949.91
2023-04-11T11:35:53.322Z,100944.78
2023-04-11T11:38:24.069Z,100953.88
2023-04-11T11:40:52.878Z,100956.56
2023-04-11T11:43:21.284Z,100962.50
2023-04-11T11:46:09.585Z,100952.84
2023-04-11T11:48:38.142Z,100958.94
2023-04-11T11:51:07.237Z,100948.63
2023-04-11T11:53:35.520Z,100953.25
2023-04-11T11:56:15.104Z,100938.38
2023-04-11T11:58:46.657Z,100941.25
2023-04-11T12:01:17.639Z,100950.59
2023-04-11T12:03:48.345Z,100959.22
2023-04-11T12:06:17.323Z,100954.31
2023-04-11T12:08:50.282Z,100954.81
2023-04-11T12:11:19.371Z,100945.63
2023-04-11T12:13:52.610Z,100954.53
2023-04-11T12:16:24.680Z,100954.03
2023-04-11T12:18:53.031Z,100950.03
2023-04-11T12:21:21.303Z,100973.78
2023-04-11T12:23:49.510Z,100958.22
2023-04-11T12:26:19.950Z,100973.81
2023-04-11T12:28:48.338Z,100958.78
2023-04-11T12:31:16.642Z,100957.09
2023-04-11T12:33:46.342Z,100960.22
2023-04-11T12:36:14.578Z,100964.63
2023-04-11T12:38:43.293Z,100963.38
2023-04-11T12:41:31.119Z,100951.69
2023-04-11T12:44:02.113Z,100954.41
2023-04-11T12:46:30.461Z,100953.72
2023-04-11T12:49:00.082Z,100955.25
2023-04-11T12:51:28.552Z,100970.06
2023-04-11T12:53:56.751Z,100960.25
2023-04-11T12:56:25.027Z,100963.34
2023-04-11T12:58:53.229Z,100971.00
2023-04-11T13:01:23.626Z,100968.03
2023-04-11T13:03:52.098Z,100973.03
2023-04-11T13:06:23.162Z,100976.22
2023-04-11T13:08:51.430Z,100972.97
2023-04-11T13:11:19.646Z,100968.75
2023-04-11T13:13:49.484Z,100976.88
2023-04-11T13:16:17.755Z,100972.03
2023-04-11T13:18:45.977Z,100972.97
2023-04-11T13:21:14.260Z,100982.63
2023-04-11T13:23:43.913Z,100972.06
2023-04-11T13:26:12.201Z,100981.94
2023-04-11T13:28:40.421Z,100969.84
2023-04-11T13:31:10.424Z,100973.22
2023-04-11T13:33:40.516Z,100972.91
2023-04-11T13:36:10.889Z,100977.84
2023-04-11T13:38:39.106Z,100969.38
2023-04-11T13:41:09.067Z,100979.81
2023-04-11T13:43:37.320Z,100973.28
2023-04-11T13:46:06.010Z,100971.41
2023-04-11T13:48:34.304Z,100968.09
2023-04-11T13:51:02.496Z,100968.66
2023-04-11T13:53:30.746Z,100970.56
2023-04-11T13:55:58.945Z,100963.53
2023-04-11T13:58:28.712Z,100956.34
2023-04-11T14:00:57.107Z,100949.56
2023-04-11T14:03:25.607Z,100958.44
2023-04-11T14:05:53.893Z,100957.41
2023-04-11T14:08:22.136Z,100948.38
2023-04-11T14:10:50.391Z,100954.03
2023-04-11T14:13:18.636Z,100948.31
2023-04-11T14:15:54.798Z,100952.03
2023-04-11T14:18:33.469Z,100935.66
2023-04-11T14:21:01.833Z,100945.81
2023-04-11T14:23:30.719Z,100929.78
2023-04-11T14:25:58.917Z,100929.59
2023-04-11T14:28:27.180Z,100928.63
2023-04-11T14:30:57.246Z,100921.25
2023-04-11T14:33:25.488Z,100945.03
2023-04-11T14:35:53.710Z,100923.69
2023-04-11T14:38:21.936Z,100929.44
2023-04-11T14:40:50.139Z,100930.56
2023-04-11T14:43:18.400Z,100941.81
2023-04-11T14:45:47.640Z,100926.88
2023-04-11T14:48:17.278Z,100921.56
2023-04-11T14:50:45.480Z,100918.69
2023-04-11T14:53:13.685Z,100917.31
2023-04-11T14:55:44.514Z,100923.09
2023-04-11T14:58:12.862Z,100920.88
2023-04-11T15:00:41.844Z,100925.72
2023-04-11T15:03:10.776Z,100920.38
2023-04-11T15:05:40.466Z,100917.50
2023-04-11T15:08:09.993Z,100919.31
2023-04-11T15:10:38.223Z,100918.72
2023-04-11T15:13:08.877Z,100926.69
2023-04-11T15:15:37.638Z,100917.16
2023-04-11T15:18:26.920Z,100916.09
2023-04-11T15:20:57.408Z,100917.84
2023-04-11T15:23:26.385Z,100918.97
2023-04-11T15:25:55.289Z,100916.31
2023-04-11T15:28:24.584Z,100908.28
2023-04-11T15:30:54.759Z,100903.72
2023-04-11T15:33:24.312Z,100912.53
2023-04-11T15:35:54.130Z,100903.91
2023-04-11T15:38:24.231Z,100908.94
2023-04-11T15:40:53.334Z,100904.66
2023-04-11T15:43:22.744Z,100897.00
2023-04-11T15:45:52.534Z,100907.94
2023-04-11T15:48:20.797Z,100905.03
2023-04-11T15:50:49.019Z,100904.41
2023-04-11T15:53:17.257Z,100896.97
2023-04-11T15:55:47.690Z,100902.03
2023-04-11T15:58:16.304Z,100890.19
2023-04-11T16:00:45.127Z,100901.66
2023-04-11T16:03:14.533Z,100894.88
2023-04-11T16:05:43.142Z,100887.16
2023-04-11T16:08:11.764Z,100891.94
2023-04-11T16:10:40.013Z,100887.72
2023-04-11T16:13:10.265Z,100896.06
2023-04-11T16:15:38.508Z,100887.59
2023-04-11T16:18:07.108Z,100873.44
2023-04-11T16:20:35.746Z,100880.75
2023-04-11T16:23:04.140Z,100871.19
2023-04-11T16:25:32.536Z,100875.41
2023-04-11T16:28:00.736Z,100875.41
2023-04-11T16:30:30.536Z,100861.34
2023-04-11T16:32:58.754Z,100870.72
2023-04-11T16:35:27.073Z,100861.72
2023-04-11T16:37:55.264Z,100858.97
2023-04-11T16:40:23.453Z,100864.63
2023-04-11T16:42:51.635Z,100844.94
2023-04-11T16:45:20.014Z,100851.59
2023-04-11T16:47:49.623Z,100859.09
2023-04-11T16:50:18.474Z,100852.19
2023-04-11T16:52:46.771Z,100851.38
2023-04-11T16:55:15.126Z,100855.03
2023-04-11T16:57:43.369Z,100859.16
2023-04-11T17:00:19.946Z,100852.53
2023-04-11T17:02:49.885Z,100847.19
2023-04-11T17:05:19.331Z,100847.53
2023-04-11T17:07:47.592Z,100854.59
2023-04-11T17:10:16.142Z,100853.31
2023-04-11T17:12:44.391Z,100848.84
2023-04-11T17:15:13.133Z,100861.00
2023-04-11T17:17:41.325Z,100849.56
2023-04-11T17:20:12.692Z,100849.34
2023-04-11T17:22:43.355Z,100844.38
2023-04-11T17:25:11.850Z,100856.31
2023-04-11T17:27:41.488Z,100851.38
2023-04-11T17:30:12.256Z,100842.84
2023-04-11T17:32:40.697Z,100843.34
2023-04-11T17:35:11.913Z,100851.00
2023-04-11T17:37:40.109Z,100846.88
2023-04-11T17:40:14.308Z,100842.00
2023-04-11T17:42:43.196Z,100851.50
2023-04-11T17:47:44.382Z,100838.66
2023-04-11T17:50:15.531Z,100836.19
2023-04-11T17:52:46.229Z,100836.16
2023-04-11T17:55:17.054Z,100830.19
2023-04-11T17:57:47.293Z,100835.16
2023-04-11T18:00:19.054Z,100827.81
2023-04-11T18:02:49.428Z,100818.81
2023-04-11T18:05:24.358Z,100825.09
2023-04-11T18:07:54.492Z,100830.91
2023-04-11T18:10:23.092Z,100823.00
2023-04-11T18:12:53.615Z,100818.28
2023-04-11T18:15:23.712Z,100823.59
2023-04-11T18:17:53.159Z,100817.72
2023-04-11T18:20:23.020Z,100813.81
2023-04-11T18:22:54.836Z,100808.16
2023-04-11T18:25:23.710Z,100814.75
2023-04-11T18:27:51.916Z,100803.63
2023-04-11T18:30:20.328Z,100798.34
2023-04-11T18:32:50.072Z,100804.59
2023-04-11T18:35:19.185Z,100805.31
2023-04-11T18:37:48.764Z,100801.13
2023-04-11T18:40:17.710Z,100797.00
2023-04-11T18:42:50.440Z,100798.06
2023-04-11T18:45:20.690Z,100797.88
2023-04-11T18:47:49.200Z,100796.16
2023-04-11T18:50:18.437Z,100795.13
2023-04-11T18:52:52.924Z,100793.25
2023-04-11T18:55:24.460Z,100793.31
2023-04-11T18:57:55.954Z,100789.84
2023-04-11T19:00:26.060Z,100790.41
2023-04-11T19:02:54.463Z,100790.06
2023-04-11T19:05:25.078Z,100788.34
2023-04-11T19:07:55.972Z,100787.53
2023-04-11T19:10:24.206Z,100789.88
2023-04-11T19:12:52.390Z,100790.59
2023-04-11T19:15:20.744Z,100793.16
2023-04-11T19:17:48.968Z,100782.03
2023-04-11T19:20:18.890Z,100788.44
2023-04-11T19:22:47.251Z,100785.09
2023-04-11T19:25:16.990Z,100777.16
2023-04-11T19:27:46.224Z,100780.69
2023-04-11T19:30:14.874Z,100777.59
2023-04-11T19:32:45.983Z,100776.34
2023-04-11T19:35:14.597Z,100769.09
2023-04-11T19:37:42.934Z,100771.75
2023-04-11T19:40:13.477Z,100763.31
2023-04-11T19:42:43.306Z,100768.50
2023-04-11T19:45:12.721Z,100759.44
2023-04-11T19:47:41.768Z,100757.41
2023-04-11T19:50:13.226Z,100753.78
2023-04-11T19:52:42.832Z,100755.75
2023-04-11T19:55:12.311Z,100750.56
2023-04-11T19:57:43.764Z,100750.28
2023-04-11T20:00:14.122Z,100751.28
2023-04-11T20:02:48.056Z,100736.22
2023-04-11T20:05:18.127Z,100730.81
2023-04-11T20:07:47.146Z,100729.28
2023-04-11T20:10:17.071Z,100712.78
2023-04-11T20:12:46.630Z,100716.59
2023-04-11T20:15:14.897Z,100702.97
2023-04-11T20:17:45.846Z,100696.19
2023-04-11T20:20:15.811Z,100698.13
2023-04-11T20:22:45.671Z,100688.72
2023-04-11T20:25:13.993Z,100678.84
2023-04-11T20:27:43.696Z,100677.72
2023-04-11T20:30:16.398Z,100683.03
2023-04-11T20:32:45.644Z,100674.59
2023-04-11T20:35:13.960Z,100660.44
2023-04-11T20:37:43.655Z,100662.91
2023-04-11T20:40:13.934Z,100660.56
2023-04-11T20:42:43.181Z,100656.31
2023-04-11T20:45:15.688Z,100665.69
2023-04-11T20:47:46.245Z,100656.06
2023-04-11T20:50:16.801Z,100647.09
2023-04-11T20:52:47.337Z,100642.25
2023-04-11T20:55:15.684Z,100649.66
2023-04-11T20:57:44.750Z,100646.31
2023-04-11T21:00:17.411Z,100638.78
2023-04-11T21:02:49.919Z,100638.75
2023-04-11T21:05:20.676Z,100634.66
2023-04-11T21:07:48.856Z,100628.78
2023-04-11T21:10:17.105Z,100628.53
2023-04-11T21:12:51.151Z,100616.38
2023-04-11T21:15:21.675Z,100625.78
2023-04-11T21:17:50.405Z,100612.97
2023-04-11T21:20:19.569Z,100612.00
2023-04-11T21:22:48.691Z,100603.34
2023-04-11T21:25:17.235Z,100607.19
2023-04-11T21:27:45.890Z,100604.00
2023-04-11T21:30:15.277Z,100596.06
2023-04-11T21:32:44.825Z,100591.88
2023-04-11T21:35:13.417Z,100586.91
2023-04-11T21:37:41.607Z,100578.53
2023-04-11T21:40:10.886Z,100585.22
2023-04-11T21:42:39.259Z,100582.53
2023-04-11T21:45:09.836Z,100573.50
2023-04-11T21:47:38.133Z,100571.84
2023-04-11T21:50:09.945Z,100577.38
2023-04-11T21:52:38.441Z,100562.25
2023-04-11T21:55:08.964Z,100559.28
2023-04-11T21:57:37.518Z,100548.44
2023-04-11T22:00:08.286Z,100551.84
2023-04-11T22:02:36.944Z,100542.22
2023-04-11T22:05:08.712Z,100533.75
2023-04-11T22:07:47.226Z,100535.19
2023-04-11T22:10:16.081Z,100531.88
2023-04-11T22:12:45.864Z,100525.22
2023-04-11T22:15:14.321Z,100520.41
2023-04-11T22:17:43.722Z,100520.88
2023-04-11T22:20:14.229Z,100518.00
2023-04-11T22:22:42.439Z,100521.41
2023-04-11T22:25:11.647Z,100521.84
2023-04-11T22:27:39.918Z,100514.38
2023-04-11T22:30:09.861Z,100517.06
2023-04-11T22:32:38.211Z,100510.28
2023-04-11T22:35:08.282Z,100505.06
2023-04-11T22:37:37.884Z,100496.47
2023-04-11T22:40:11.293Z,100488.63
2023-04-11T22:42:39.884Z,100481.81
2023-04-11T22:45:09.548Z,100472.00
2023-04-11T22:47:38.071Z,100461.34
2023-04-11T22:50:07.368Z,100466.59
2023-04-11T22:52:37.715Z,100455.03
2023-04-11T22:55:07.366Z,100455.63
2023-04-11T22:57:36.925Z,100444.25
2023-04-11T23:00:07.371Z,100453.59
2023-04-11T23:02:37.414Z,100441.78
2023-04-11T23:05:07.852Z,100438.50
2023-04-11T23:07:37.357Z,100437.22
2023-04-11T23:10:13.957Z,100429.66
2023-04-11T23:12:42.438Z,100432.09
2023-04-11T23:15:12.574Z,100427.50
2023-04-11T23:17:41.298Z,100434.88
2023-04-11T23:20:13.473Z,100423.06
2023-04-11T23:22:44.109Z,100415.47
2023-04-11T23:25:14.137Z,100411.19
2023-04-11T23:27:42.887Z,100407.75
2023-04-11T23:30:13.011Z,100394.00
2023-04-11T23:32:41.753Z,100394.41
2023-04-11T23:35:10.906Z,100388.56
2023-04-11T23:37:40.777Z,100388.31
2023-04-11T23:40:13.992Z,100388.78
2023-04-11T23:42:42.881Z,100380.34
2023-04-11T23:45:12.643Z,100380.56
2023-04-11T23:47:41.175Z,100379.50
2023-04-11T23:50:11.073Z,100379.00
2023-04-11T23:52:39.712Z,100372.44
2023-04-11T23:55:12.293Z,100362.69
2023-04-11T23:57:40.625Z,100364.72
